createdAt,value
2019-03-27T00:01:53.058Z,2.37
2019-03-27T00:04:27.588Z,2.07
2019-03-27T00:07:01.524Z,2.40
2019-03-27T00:09:33.607Z,2.60
2019-03-27T00:12:05.973Z,2.50
2019-03-27T00:14:39.738Z,1.53
2019-03-27T00:17:12.063Z,2.77
2019-03-27T00:19:44.209Z,1.90
2019-03-27T00:22:16.421Z,2.80
2019-03-27T00:24:48.849Z,2.40
2019-03-27T00:27:21.024Z,2.60
2019-03-27T00:29:53.092Z,2.13
2019-03-27T00:32:25.079Z,2.93
2019-03-27T00:34:58.940Z,2.63
2019-03-27T00:37:31.504Z,2.93
2019-03-27T00:40:03.731Z,2.17
2019-03-27T00:42:35.704Z,1.93
2019-03-27T00:45:08.788Z,2.70
2019-03-27T00:47:41.432Z,2.83
2019-03-27T00:50:13.863Z,3.70
2019-03-27T00:52:46.281Z,2.73
2019-03-27T00:55:18.919Z,3.13
2019-03-27T00:57:52.736Z,2.80
2019-03-27T01:00:27.900Z,2.70
2019-03-27T01:03:00.240Z,2.80
2019-03-27T01:05:32.644Z,3.17
2019-03-27T01:08:04.804Z,3.07
2019-03-27T01:10:36.927Z,2.43
2019-03-27T01:13:09.654Z,2.87
2019-03-27T01:15:41.925Z,3.33
2019-03-27T01:18:14.036Z,3.70
2019-03-27T01:20:46.123Z,3.27
2019-03-27T01:23:20.212Z,3.33
2019-03-27T01:25:52.641Z,3.20
2019-03-27T01:28:25.018Z,2.93
2019-03-27T01:30:57.094Z,4.10
2019-03-27T01:33:29.193Z,3.87
2019-03-27T01:36:01.371Z,4.00
2019-03-27T01:38:33.474Z,2.93
2019-03-27T01:41:05.763Z,5.93
2019-03-27T01:43:37.921Z,5.50
2019-03-27T01:46:10.264Z,5.60
2019-03-27T01:48:42.865Z,3.27
2019-03-27T01:51:15.188Z,4.03
2019-03-27T01:53:47.477Z,4.53
2019-03-27T01:56:19.592Z,2.53
2019-03-27T01:58:51.790Z,3.07
2019-03-27T02:01:23.972Z,3.07
2019-03-27T02:03:56.666Z,2.97
2019-03-27T02:06:28.756Z,4.27
2019-03-27T02:09:00.853Z,3.90
2019-03-27T02:11:33.008Z,3.87
2019-03-27T02:14:05.201Z,3.43
2019-03-27T02:16:37.620Z,3.40
2019-03-27T02:19:09.880Z,3.43
2019-03-27T02:21:41.962Z,4.20
2019-03-27T02:24:14.139Z,3.40
2019-03-27T02:26:46.356Z,3.43
2019-03-27T02:29:18.432Z,4.33
2019-03-27T02:31:50.632Z,3.83
2019-03-27T02:34:22.677Z,3.70
2019-03-27T02:36:55.042Z,3.43
2019-03-27T02:39:27.098Z,4.47
2019-03-27T02:41:59.230Z,4.07
2019-03-27T02:44:31.567Z,4.00
2019-03-27T02:47:03.709Z,3.57
2019-03-27T02:49:37.983Z,3.67
2019-03-27T02:52:10.075Z,4.73
2019-03-27T02:54:42.562Z,4.70
2019-03-27T02:57:15.094Z,4.20
2019-03-27T02:59:47.154Z,4.00
2019-03-27T03:02:19.535Z,4.20
2019-03-27T03:04:52.321Z,4.50
2019-03-27T03:07:27.287Z,3.80
2019-03-27T03:10:00.007Z,3.50
2019-03-27T03:12:32.209Z,3.90
2019-03-27T03:15:04.539Z,3.73
2019-03-27T03:17:36.775Z,4.27
2019-03-27T03:20:10.366Z,4.17
2019-03-27T03:22:42.519Z,4.57
2019-03-27T03:25:14.476Z,4.43
2019-03-27T03:27:48.283Z,2.50
2019-03-27T03:30:20.457Z,5.70
2019-03-27T03:32:52.656Z,4.70
2019-03-27T03:35:24.911Z,5.20
2019-03-27T03:37:56.998Z,4.67
2019-03-27T03:40:29.047Z,4.57
2019-03-27T03:43:01.561Z,4.63
2019-03-27T03:45:33.753Z,4.40
2019-03-27T03:48:07.927Z,4.50
2019-03-27T03:50:44.904Z,4.93
2019-03-27T03:53:17.127Z,4.27
2019-03-27T03:55:51.073Z,4.87
2019-03-27T03:58:25.688Z,4.50
2019-03-27T04:00:58.085Z,4.80
2019-03-27T04:03:30.281Z,4.80
2019-03-27T04:06:03.134Z,4.70
2019-03-27T04:08:35.233Z,5.50
2019-03-27T04:11:07.564Z,3.57
2019-03-27T04:13:40.019Z,4.50
2019-03-27T04:16:20.642Z,5.03
2019-03-27T04:18:55.386Z,4.93
2019-03-27T04:21:27.743Z,5.37
2019-03-27T04:24:00.602Z,5.63
2019-03-27T04:26:33.667Z,3.50
2019-03-27T04:29:12.353Z,4.73
2019-03-27T04:31:44.608Z,4.33
2019-03-27T04:34:17.302Z,5.30
2019-03-27T04:36:49.452Z,4.83
2019-03-27T04:39:21.499Z,5.30
2019-03-27T04:41:53.688Z,4.73
2019-03-27T04:44:25.825Z,4.93
2019-03-27T04:46:57.947Z,4.80
2019-03-27T04:49:29.967Z,5.00
2019-03-27T04:52:01.938Z,4.23
2019-03-27T04:54:34.125Z,5.20
2019-03-27T04:57:06.108Z,5.27
2019-03-27T04:59:38.300Z,6.27
2019-03-27T05:02:11.915Z,5.90
2019-03-27T05:04:44.195Z,7.07
2019-03-27T05:07:18.369Z,6.00
2019-03-27T05:10:01.701Z,5.70
2019-03-27T05:12:33.850Z,5.97
2019-03-27T05:15:07.967Z,6.60
2019-03-27T05:17:45.667Z,6.70
2019-03-27T05:20:13.602Z,6.20
2019-03-27T05:22:45.630Z,6.20
2019-03-27T05:25:17.722Z,6.47
2019-03-27T05:27:50.274Z,6.93
2019-03-27T05:30:29.766Z,6.70
2019-03-27T05:33:04.014Z,6.30
2019-03-27T05:35:37.379Z,6.67
2019-03-27T05:38:10.186Z,7.17
2019-03-27T05:40:42.402Z,6.60
2019-03-27T05:43:14.484Z,6.10
2019-03-27T05:45:46.904Z,5.83
2019-03-27T05:48:19.187Z,6.80
2019-03-27T05:50:51.387Z,6.63
2019-03-27T05:53:25.030Z,6.40
2019-03-27T05:55:57.190Z,7.63
2019-03-27T05:58:29.428Z,7.27
2019-03-27T06:01:02.233Z,6.83
2019-03-27T06:03:35.998Z,8.03
2019-03-27T06:06:09.048Z,6.03
2019-03-27T06:08:41.822Z,5.80
2019-03-27T06:11:14.209Z,6.27
2019-03-27T06:13:47.095Z,7.20
2019-03-27T06:16:20.538Z,6.60
2019-03-27T06:18:53.015Z,6.50
2019-03-27T06:21:25.095Z,6.73
2019-03-27T06:23:58.885Z,6.47
2019-03-27T06:26:31.168Z,7.60
2019-03-27T06:29:03.441Z,6.27
2019-03-27T06:31:41.444Z,7.20
2019-03-27T06:34:13.576Z,7.73
2019-03-27T06:36:45.708Z,6.33
2019-03-27T06:39:17.724Z,5.70
2019-03-27T06:41:50.379Z,6.60
2019-03-27T06:44:22.264Z,5.87
2019-03-27T06:46:54.812Z,6.83
2019-03-27T06:49:28.839Z,5.07
2019-03-27T06:52:01.730Z,7.07
2019-03-27T06:54:33.886Z,5.87
2019-03-27T06:57:06.466Z,5.33
2019-03-27T06:59:39.249Z,6.97
2019-03-27T07:02:11.679Z,5.53
2019-03-27T07:04:43.998Z,3.73
2019-03-27T07:07:16.378Z,4.77
2019-03-27T07:09:53.098Z,4.57
2019-03-27T07:12:25.789Z,4.30
2019-03-27T07:14:59.108Z,4.53
2019-03-27T07:17:31.650Z,4.67
2019-03-27T07:20:04.215Z,5.70
2019-03-27T07:22:36.483Z,4.43
2019-03-27T07:25:09.346Z,4.77
2019-03-27T07:27:42.013Z,5.70
2019-03-27T07:30:15.533Z,6.87
2019-03-27T07:32:49.534Z,5.70
2019-03-27T07:35:24.029Z,4.93
2019-03-27T07:37:56.188Z,5.50
2019-03-27T07:40:28.473Z,5.00
2019-03-27T07:43:03.270Z,5.37
2019-03-27T07:45:35.735Z,3.90
2019-03-27T07:48:08.903Z,3.90
2019-03-27T07:50:41.940Z,4.73
2019-03-27T07:53:15.586Z,4.60
2019-03-27T07:55:49.367Z,4.17
2019-03-27T07:58:28.649Z,4.30
2019-03-27T08:01:10.069Z,4.90
2019-03-27T08:03:42.826Z,4.53
2019-03-27T08:06:15.308Z,3.27
2019-03-27T08:08:48.627Z,4.40
2019-03-27T08:11:22.822Z,5.50
2019-03-27T08:13:55.231Z,5.90
2019-03-27T08:16:27.464Z,6.03
2019-03-27T08:19:13.666Z,4.20
2019-03-27T08:21:48.346Z,3.67
2019-03-27T08:24:20.396Z,4.47
2019-03-27T08:26:55.640Z,3.53
2019-03-27T08:29:28.381Z,3.37
2019-03-27T08:32:01.219Z,3.90
2019-03-27T08:34:33.813Z,3.67
2019-03-27T08:37:06.087Z,3.53
2019-03-27T08:39:39.663Z,4.90
2019-03-27T08:42:12.147Z,4.10
2019-03-27T08:44:44.826Z,3.83
2019-03-27T08:47:17.430Z,5.10
2019-03-27T08:49:51.701Z,4.70
2019-03-27T08:52:23.978Z,4.80
2019-03-27T08:54:59.892Z,3.17
2019-03-27T08:57:32.544Z,3.50
2019-03-27T09:00:06.212Z,3.70
2019-03-27T09:02:38.914Z,3.27
2019-03-27T09:05:11.330Z,3.80
2019-03-27T09:07:46.434Z,3.80
2019-03-27T09:10:18.869Z,3.30
2019-03-27T09:12:51.532Z,3.87
2019-03-27T09:15:23.836Z,4.10
2019-03-27T09:17:56.428Z,4.00
2019-03-27T09:20:28.796Z,3.37
2019-03-27T09:23:01.231Z,4.00
2019-03-27T09:25:35.515Z,3.77
2019-03-27T09:28:08.082Z,3.90
2019-03-27T09:30:41.113Z,4.23
2019-03-27T09:33:27.925Z,3.77
2019-03-27T09:36:01.415Z,4.23
2019-03-27T09:38:34.800Z,4.17
2019-03-27T09:41:08.629Z,4.00
2019-03-27T09:43:44.039Z,3.53
2019-03-27T09:46:16.493Z,3.70
2019-03-27T09:48:48.984Z,3.43
2019-03-27T09:51:21.274Z,3.97
2019-03-27T09:53:59.592Z,2.80
2019-03-27T09:56:32.135Z,3.60
2019-03-27T09:59:06.069Z,3.47
2019-03-27T10:01:40.010Z,4.33
2019-03-27T10:04:12.392Z,2.77
2019-03-27T10:07:03.626Z,2.90
2019-03-27T10:09:36.543Z,4.97
2019-03-27T10:12:10.059Z,2.43
2019-03-27T10:14:55.177Z,2.70
2019-03-27T10:17:31.331Z,3.73
2019-03-27T10:20:04.383Z,3.40
2019-03-27T10:22:36.552Z,3.63
2019-03-27T10:25:08.842Z,3.23
2019-03-27T10:27:41.851Z,3.60
2019-03-27T10:30:15.460Z,3.10
2019-03-27T10:32:47.882Z,2.67
2019-03-27T10:35:20.559Z,3.60
2019-03-27T10:37:53.862Z,2.27
2019-03-27T10:40:26.318Z,2.40
2019-03-27T10:43:00.420Z,2.97
2019-03-27T10:45:35.960Z,3.07
2019-03-27T10:48:09.544Z,2.73
2019-03-27T10:50:42.836Z,6.77
2019-03-27T10:53:15.376Z,2.80
2019-03-27T10:55:47.541Z,8.77
2019-03-27T10:58:20.123Z,2.50
2019-03-27T11:00:52.270Z,1.70
2019-03-27T11:03:30.442Z,2.90
2019-03-27T11:06:03.388Z,3.93
2019-03-27T11:08:35.857Z,2.80
2019-03-27T11:11:07.992Z,4.23
2019-03-27T11:13:43.371Z,3.57
2019-03-27T11:16:19.140Z,2.67
2019-03-27T11:18:51.777Z,2.97
2019-03-27T11:21:24.217Z,2.73
2019-03-27T11:23:59.175Z,1.80
2019-03-27T11:26:38.170Z,2.23
2019-03-27T11:29:12.599Z,1.70
2019-03-27T11:32:10.983Z,1.40
2019-03-27T11:34:44.667Z,1.40
2019-03-27T11:37:24.924Z,1.60
2019-03-27T11:39:57.387Z,2.37
2019-03-27T11:42:29.738Z,1.07
2019-03-27T11:45:05.548Z,1.47
2019-03-27T11:47:41.342Z,0.70
2019-03-27T11:50:15.991Z,2.47
2019-03-27T11:52:50.301Z,1.70
2019-03-27T11:55:28.238Z,1.40
2019-03-27T11:58:02.792Z,1.30
2019-03-27T12:00:36.271Z,1.70
2019-03-27T12:03:08.792Z,2.00
2019-03-27T12:05:45.426Z,4.03
2019-03-27T12:08:30.316Z,1.60
2019-03-27T12:11:29.524Z,1.87
2019-03-27T12:14:06.795Z,1.57
2019-03-27T12:16:41.803Z,2.50
2019-03-27T12:19:17.611Z,4.47
2019-03-27T12:21:57.569Z,3.30
2019-03-27T12:24:32.679Z,1.90
2019-03-27T12:27:15.249Z,2.27
2019-03-27T12:30:07.614Z,1.73
2019-03-27T12:33:00.313Z,1.93
2019-03-27T12:35:33.521Z,3.30
2019-03-27T12:38:07.775Z,1.27
2019-03-27T12:40:39.973Z,2.67
2019-03-27T12:43:12.928Z,2.43
2019-03-27T12:45:45.779Z,3.63
2019-03-27T12:48:18.991Z,1.57
2019-03-27T12:50:54.323Z,2.17
2019-03-27T12:53:29.166Z,2.87
2019-03-27T12:56:04.423Z,0.90
2019-03-27T12:58:39.098Z,1.80
2019-03-27T13:01:21.364Z,2.30
2019-03-27T13:04:04.882Z,1.40
2019-03-27T13:06:43.932Z,1.40
2019-03-27T13:09:16.626Z,4.27
2019-03-27T13:11:50.616Z,2.10
2019-03-27T13:14:23.530Z,2.10
2019-03-27T13:16:56.242Z,2.60
2019-03-27T13:19:29.916Z,1.80
2019-03-27T13:22:02.193Z,1.43
2019-03-27T13:24:34.739Z,2.47
2019-03-27T13:27:07.017Z,1.87
2019-03-27T13:29:52.626Z,1.93
2019-03-27T13:32:24.999Z,1.97
2019-03-27T13:34:57.443Z,1.67
2019-03-27T13:37:32.418Z,1.60
2019-03-27T13:40:09.554Z,2.20
2019-03-27T13:42:43.651Z,1.80
2019-03-27T13:45:17.034Z,2.00
2019-03-27T13:47:49.673Z,1.97
2019-03-27T13:50:25.962Z,2.43
2019-03-27T13:52:58.413Z,2.00
2019-03-27T13:55:34.955Z,2.00
2019-03-27T13:58:06.845Z,2.00
2019-03-27T14:00:39.515Z,2.20
2019-03-27T14:03:11.849Z,1.90
2019-03-27T14:05:43.881Z,2.67
2019-03-27T14:08:16.741Z,2.40
2019-03-27T14:10:48.965Z,2.50
2019-03-27T14:13:21.995Z,9.93
2019-03-27T14:15:54.870Z,2.63
2019-03-27T14:18:28.025Z,2.47
2019-03-27T14:21:01.198Z,4.80
2019-03-27T14:23:34.844Z,3.03
2019-03-27T14:26:07.795Z,2.23
2019-03-27T14:28:40.547Z,2.23
2019-03-27T14:31:12.783Z,3.00
2019-03-27T14:33:45.850Z,2.67
2019-03-27T14:36:18.022Z,2.13
2019-03-27T14:38:50.624Z,2.30
2019-03-27T14:41:22.675Z,3.00
2019-03-27T14:43:54.995Z,2.70
2019-03-27T14:46:27.385Z,2.50
2019-03-27T14:49:01.664Z,2.50
2019-03-27T14:51:35.255Z,2.60
2019-03-27T14:54:07.602Z,2.10
2019-03-27T14:56:39.894Z,2.40
2019-03-27T14:59:12.918Z,3.33
2019-03-27T15:01:47.625Z,2.77
2019-03-27T15:04:19.979Z,2.13
2019-03-27T15:06:56.540Z,3.10
2019-03-27T15:09:29.061Z,3.87
2019-03-27T15:12:05.011Z,3.53
2019-03-27T15:14:48.072Z,3.37
2019-03-27T15:17:21.869Z,3.23
2019-03-27T15:19:54.828Z,3.83
2019-03-27T15:22:26.991Z,3.00
2019-03-27T15:24:59.566Z,3.60
2019-03-27T15:27:33.800Z,4.30
2019-03-27T15:30:06.763Z,4.40
2019-03-27T15:32:39.220Z,3.33
2019-03-27T15:35:11.503Z,3.77
2019-03-27T15:37:43.828Z,3.30
2019-03-27T15:40:16.093Z,3.63
2019-03-27T15:42:48.420Z,3.70
2019-03-27T15:45:21.056Z,4.33
2019-03-27T15:47:53.200Z,4.03
2019-03-27T15:50:26.429Z,4.30
2019-03-27T15:52:58.710Z,3.27
2019-03-27T15:55:31.004Z,4.20
2019-03-27T15:58:03.400Z,3.50
2019-03-27T16:00:35.888Z,3.90
2019-03-27T16:03:08.681Z,6.70
2019-03-27T16:05:42.956Z,4.00
2019-03-27T16:08:15.105Z,3.80
2019-03-27T16:10:47.343Z,4.40
2019-03-27T16:13:20.944Z,4.37
2019-03-27T16:15:53.840Z,3.80
2019-03-27T16:18:26.134Z,4.60
2019-03-27T16:20:58.449Z,3.83
2019-03-27T16:23:32.313Z,4.20
2019-03-27T16:26:04.962Z,5.40
2019-03-27T16:28:45.098Z,4.77
2019-03-27T16:31:17.363Z,5.37
2019-03-27T16:33:50.067Z,5.50
2019-03-27T16:36:22.833Z,4.93
2019-03-27T16:38:54.823Z,4.33
2019-03-27T16:41:27.574Z,4.23
2019-03-27T16:44:00.731Z,4.57
2019-03-27T16:46:33.487Z,5.20
2019-03-27T16:49:06.308Z,4.10
2019-03-27T16:51:38.818Z,7.97
2019-03-27T16:54:12.067Z,5.37
2019-03-27T16:56:44.323Z,5.33
2019-03-27T16:59:16.522Z,5.20
2019-03-27T17:01:49.927Z,4.70
2019-03-27T17:04:23.095Z,4.80
2019-03-27T17:06:55.464Z,4.93
2019-03-27T17:09:28.545Z,5.60
2019-03-27T17:12:00.744Z,5.20
2019-03-27T17:14:33.085Z,5.80
2019-03-27T17:17:05.880Z,4.60
2019-03-27T17:19:38.201Z,7.33
2019-03-27T17:22:19.521Z,4.67
2019-03-27T17:24:44.982Z,4.73
2019-03-27T17:27:17.536Z,5.47
2019-03-27T17:29:50.272Z,6.27
2019-03-27T17:32:22.537Z,5.83
2019-03-27T17:34:55.131Z,7.93
2019-03-27T17:37:27.313Z,7.50
2019-03-27T17:40:04.350Z,6.03
2019-03-27T17:42:37.879Z,5.23
2019-03-27T17:45:10.735Z,8.47
2019-03-27T17:47:43.119Z,5.23
2019-03-27T17:50:15.908Z,6.37
2019-03-27T17:52:48.629Z,5.87
2019-03-27T17:55:21.066Z,8.60
2019-03-27T17:57:53.163Z,5.80
2019-03-27T18:00:41.992Z,6.53
2019-03-27T18:03:14.760Z,6.23
2019-03-27T18:05:49.895Z,6.77
2019-03-27T18:08:22.179Z,7.17
2019-03-27T18:10:54.737Z,7.57
2019-03-27T18:13:27.640Z,6.83
2019-03-27T18:16:00.255Z,7.30
2019-03-27T18:18:33.076Z,7.27
2019-03-27T18:21:05.659Z,5.70
2019-03-27T18:23:46.469Z,9.33
2019-03-27T18:26:16.512Z,6.83
2019-03-27T18:28:48.735Z,6.53
2019-03-27T18:31:21.408Z,6.63
2019-03-27T18:33:53.628Z,7.67
2019-03-27T18:36:25.682Z,6.17
2019-03-27T18:38:59.040Z,5.90
2019-03-27T18:41:34.227Z,10.07
2019-03-27T18:44:07.459Z,6.57
2019-03-27T18:46:46.114Z,6.77
2019-03-27T18:49:18.030Z,6.97
2019-03-27T18:51:53.197Z,6.83
2019-03-27T18:54:24.996Z,7.33
2019-03-27T18:56:59.047Z,7.97
2019-03-27T18:59:32.919Z,9.50
2019-03-27T19:02:05.192Z,9.60
2019-03-27T19:04:37.488Z,9.53
2019-03-27T19:07:09.744Z,8.83
2019-03-27T19:09:41.855Z,9.60
2019-03-27T19:12:20.618Z,9.10
2019-03-27T19:14:53.070Z,9.37
2019-03-27T19:17:25.396Z,10.23
2019-03-27T19:19:57.808Z,9.63
2019-03-27T19:22:29.937Z,9.23
2019-03-27T19:25:02.183Z,9.40
2019-03-27T19:27:37.200Z,8.77
2019-03-27T19:30:09.345Z,9.63
2019-03-27T19:32:42.846Z,9.60
2019-03-27T19:35:14.995Z,9.60
2019-03-27T19:37:47.466Z,9.37
2019-03-27T19:40:20.260Z,9.97
2019-03-27T19:42:52.724Z,9.07
2019-03-27T19:45:24.973Z,9.37
2019-03-27T19:47:57.044Z,8.87
2019-03-27T19:50:29.494Z,6.50
2019-03-27T19:53:02.394Z,8.13
2019-03-27T19:55:36.964Z,9.23
2019-03-27T19:58:13.856Z,8.20
2019-03-27T20:00:46.471Z,9.00
2019-03-27T20:03:18.885Z,8.87
2019-03-27T20:05:51.540Z,8.97
2019-03-27T20:08:23.596Z,8.97
2019-03-27T20:10:56.127Z,9.67
2019-03-27T20:13:28.302Z,9.60
2019-03-27T20:16:00.614Z,9.63
2019-03-27T20:18:35.006Z,9.00
2019-03-27T20:21:07.481Z,10.10
2019-03-27T20:23:39.721Z,12.00
2019-03-27T20:26:12.146Z,9.70
2019-03-27T20:28:44.160Z,11.17
2019-03-27T20:31:18.076Z,10.57
2019-03-27T20:33:51.015Z,10.47
2019-03-27T20:36:23.468Z,10.47
2019-03-27T20:38:55.766Z,10.67
2019-03-27T20:41:28.614Z,10.37
2019-03-27T20:44:01.906Z,10.33
2019-03-27T20:46:36.039Z,9.80
2019-03-27T20:49:09.390Z,11.07
2019-03-27T20:51:41.948Z,11.90
2019-03-27T20:54:14.626Z,10.57
2019-03-27T20:56:56.956Z,9.30
2019-03-27T20:59:29.055Z,12.77
2019-03-27T21:02:03.371Z,23.27
2019-03-27T21:04:37.176Z,14.10
2019-03-27T21:07:09.404Z,11.37
2019-03-27T21:09:43.309Z,11.57
2019-03-27T21:12:15.972Z,11.87
2019-03-27T21:14:47.940Z,10.60
2019-03-27T21:17:21.026Z,11.70
2019-03-27T21:19:57.957Z,11.33
2019-03-27T21:22:30.508Z,12.17
2019-03-27T21:25:08.498Z,12.80
2019-03-27T21:27:37.654Z,12.33
2019-03-27T21:30:10.016Z,12.73
2019-03-27T21:32:42.144Z,14.43
2019-03-27T21:35:14.204Z,14.50
2019-03-27T21:37:46.644Z,14.70
2019-03-27T21:40:20.495Z,11.50
2019-03-27T21:42:52.876Z,13.70
2019-03-27T21:45:25.903Z,15.53
2019-03-27T21:47:58.402Z,14.93
2019-03-27T21:50:34.722Z,14.73
2019-03-27T21:53:07.021Z,16.23
2019-03-27T21:55:43.099Z,16.97
2019-03-27T21:58:13.088Z,14.70
2019-03-27T22:00:45.424Z,12.57
2019-03-27T22:03:17.932Z,15.87
2019-03-27T22:05:49.952Z,15.30
2019-03-27T22:08:22.085Z,15.10
2019-03-27T22:10:56.030Z,15.30
2019-03-27T22:13:28.398Z,15.10
2019-03-27T22:16:03.274Z,15.50
2019-03-27T22:18:35.598Z,14.93
2019-03-27T22:21:07.574Z,14.33
2019-03-27T22:23:39.830Z,15.23
2019-03-27T22:26:14.432Z,14.97
2019-03-27T22:28:48.166Z,16.50
2019-03-27T22:31:22.252Z,16.00
2019-03-27T22:33:54.390Z,16.83
2019-03-27T22:36:26.850Z,16.27
2019-03-27T22:38:59.474Z,15.07
2019-03-27T22:41:32.687Z,13.90
2019-03-27T22:44:06.617Z,16.20
2019-03-27T22:46:39.252Z,16.03
2019-03-27T22:49:11.398Z,16.83
2019-03-27T22:51:43.589Z,15.47
2019-03-27T22:54:15.923Z,14.77
2019-03-27T22:56:49.437Z,15.67
2019-03-27T22:59:21.688Z,16.17
2019-03-27T23:01:53.885Z,17.20
2019-03-27T23:04:25.992Z,15.63
2019-03-27T23:06:58.197Z,15.20
2019-03-27T23:09:30.140Z,13.93
2019-03-27T23:12:02.078Z,16.50
2019-03-27T23:14:34.496Z,15.20
2019-03-27T23:17:06.584Z,17.37
2019-03-27T23:19:38.650Z,14.20
2019-03-27T23:22:10.616Z,16.07
2019-03-27T23:24:47.441Z,16.77
2019-03-27T23:28:08.058Z,16.93
2019-03-27T23:31:03.998Z,17.30
2019-03-27T23:33:40.576Z,14.27
2019-03-27T23:36:12.805Z,15.37
2019-03-27T23:38:45.012Z,15.70
2019-03-27T23:41:18.844Z,17.33
2019-03-27T23:43:52.850Z,16.67
2019-03-27T23:46:25.061Z,17.10
2019-03-27T23:48:57.084Z,15.57
2019-03-27T23:51:31.748Z,16.70
2019-03-27T23:54:03.914Z,16.13
2019-03-27T23:56:36.027Z,14.83
2019-03-27T23:59:08.401Z,8.93
